createdAt,value
2022-12-03T00:00:46.678Z,4.10
2022-12-03T00:03:20.352Z,4.10
2022-12-03T00:05:49.240Z,4.10
2022-12-03T00:08:16.806Z,4.10
2022-12-03T00:10:51.189Z,4.10
2022-12-03T00:13:38.238Z,4.10
2022-12-03T00:16:06.047Z,4.10
2022-12-03T00:18:40.089Z,4.10
2022-12-03T00:21:07.348Z,4.10
2022-12-03T00:23:42.450Z,4.10
2022-12-03T00:26:10.201Z,4.10
2022-12-03T00:28:44.128Z,4.10
2022-12-03T00:31:11.592Z,4.00
2022-12-03T00:33:45.158Z,4.10
2022-12-03T00:36:12.558Z,4.10
2022-12-03T00:38:46.249Z,4.00
2022-12-03T00:41:13.538Z,4.00
2022-12-03T00:43:48.239Z,4.10
2022-12-03T00:46:20.906Z,4.10
2022-12-03T00:48:55.283Z,4.00
2022-12-03T00:51:24.134Z,4.00
2022-12-03T00:53:57.975Z,4.10
2022-12-03T00:56:32.895Z,4.10
2022-12-03T00:59:00.186Z,4.10
2022-12-03T01:01:34.115Z,4.10
2022-12-03T01:04:01.489Z,4.00
2022-12-03T01:06:35.230Z,4.00
2022-12-03T01:09:02.591Z,4.00
2022-12-03T01:11:45.159Z,4.00
2022-12-03T01:14:20.207Z,4.00
2022-12-03T01:16:54.411Z,4.00
2022-12-03T01:19:21.699Z,4.10
2022-12-03T01:21:58.012Z,4.10
2022-12-03T01:24:25.569Z,4.10
2022-12-03T01:27:00.110Z,4.10
2022-12-03T01:29:27.360Z,4.10
2022-12-03T01:32:19.112Z,4.10
2022-12-03T01:34:48.580Z,4.10
2022-12-03T01:37:23.161Z,4.10
2022-12-03T01:39:50.899Z,4.20
2022-12-03T01:42:40.239Z,4.20
2022-12-03T01:45:16.583Z,4.20
2022-12-03T01:47:50.226Z,4.10
2022-12-03T01:50:40.279Z,4.20
2022-12-03T01:53:11.120Z,4.20
2022-12-03T01:55:48.587Z,4.20
2022-12-03T01:58:17.611Z,4.30
2022-12-03T02:00:45.049Z,4.30
2022-12-03T02:03:24.578Z,4.30
2022-12-03T02:05:59.159Z,4.30
2022-12-03T02:08:44.120Z,4.30
2022-12-03T02:11:41.228Z,4.30
2022-12-03T02:14:29.130Z,4.20
2022-12-03T02:17:09.120Z,4.20
2022-12-03T02:19:43.630Z,4.10
2022-12-03T02:22:34.170Z,4.10
2022-12-03T02:25:17.189Z,4.10
2022-12-03T02:27:46.151Z,4.10
2022-12-03T02:30:24.272Z,4.00
2022-12-03T02:32:53.848Z,4.00
2022-12-03T02:35:30.210Z,4.00
2022-12-03T02:38:06.194Z,4.00
2022-12-03T02:40:41.700Z,4.10
2022-12-03T02:43:10.472Z,4.10
2022-12-03T02:45:49.060Z,4.10
2022-12-03T02:48:40.427Z,4.10
2022-12-03T02:51:18.177Z,4.00
2022-12-03T02:53:49.148Z,4.10
2022-12-03T02:56:27.202Z,4.10
2022-12-03T02:58:58.133Z,4.10
2022-12-03T03:01:33.199Z,4.00
2022-12-03T03:04:01.188Z,4.00
2022-12-03T03:06:35.114Z,4.00
2022-12-03T03:09:03.938Z,4.00
2022-12-03T03:11:38.644Z,4.00
2022-12-03T03:14:12.644Z,3.90
2022-12-03T03:16:46.169Z,3.90
2022-12-03T03:19:14.008Z,3.90
2022-12-03T03:21:48.573Z,3.90
2022-12-03T03:24:16.199Z,3.90
2022-12-03T03:26:50.434Z,3.90
2022-12-03T03:29:18.354Z,3.90
2022-12-03T03:31:53.217Z,4.00
2022-12-03T03:34:21.206Z,4.00
2022-12-03T03:36:55.124Z,4.00
2022-12-03T03:39:22.741Z,4.10
2022-12-03T03:41:56.228Z,4.10
2022-12-03T03:44:23.495Z,4.20
2022-12-03T03:46:57.137Z,4.20
2022-12-03T03:49:24.794Z,4.20
2022-12-03T03:51:59.177Z,4.20
2022-12-03T03:54:26.982Z,4.20
2022-12-03T03:57:01.128Z,4.30
2022-12-03T03:59:32.536Z,4.20
2022-12-03T04:02:06.183Z,4.20
2022-12-03T04:04:37.430Z,4.20
2022-12-03T04:07:11.113Z,4.20
2022-12-03T04:09:38.394Z,4.20
2022-12-03T04:12:31.448Z,4.10
2022-12-03T04:15:12.148Z,4.10
2022-12-03T04:17:46.098Z,4.10
2022-12-03T04:20:20.184Z,4.00
2022-12-03T04:22:47.669Z,4.10
2022-12-03T04:25:40.208Z,4.10
2022-12-03T04:28:34.084Z,4.10
2022-12-03T04:31:21.434Z,4.10
2022-12-03T04:34:14.202Z,4.10
2022-12-03T04:36:41.425Z,4.10
2022-12-03T04:39:15.319Z,4.10
2022-12-03T04:41:42.588Z,4.10
2022-12-03T04:44:35.215Z,4.10
2022-12-03T04:47:14.882Z,4.10
2022-12-03T04:49:54.218Z,4.00
2022-12-03T04:52:21.552Z,4.10
2022-12-03T04:54:55.523Z,4.10
2022-12-03T04:57:23.248Z,4.10
2022-12-03T04:59:57.170Z,4.10
2022-12-03T05:02:24.447Z,4.10
2022-12-03T05:04:58.630Z,4.10
2022-12-03T05:07:25.887Z,4.20
2022-12-03T05:10:00.256Z,4.20
2022-12-03T05:12:35.115Z,4.10
2022-12-03T05:15:16.168Z,4.00
2022-12-03T05:17:43.514Z,4.00
2022-12-03T05:20:36.198Z,4.00
2022-12-03T05:23:04.069Z,4.00
2022-12-03T05:25:38.223Z,4.00
2022-12-03T05:28:13.173Z,4.00
2022-12-03T05:30:40.546Z,3.90
2022-12-03T05:33:08.546Z,4.00
2022-12-03T05:35:43.325Z,4.00
2022-12-03T05:38:17.154Z,4.00
2022-12-03T05:40:44.628Z,4.00
2022-12-03T05:43:11.903Z,4.10
2022-12-03T05:45:47.234Z,4.10
2022-12-03T05:48:23.189Z,4.10
2022-12-03T05:50:51.270Z,4.00
2022-12-03T05:53:25.184Z,4.00
2022-12-03T05:55:59.275Z,4.00
2022-12-03T05:58:26.708Z,4.00
2022-12-03T06:01:00.253Z,4.10
2022-12-03T06:03:27.672Z,4.10
2022-12-03T06:06:01.404Z,4.20
2022-12-03T06:08:28.807Z,4.20
2022-12-03T06:11:02.279Z,4.20
2022-12-03T06:13:36.163Z,4.20
2022-12-03T06:16:10.489Z,4.20
2022-12-03T06:18:44.387Z,4.20
2022-12-03T06:21:13.031Z,4.20
2022-12-03T06:23:51.116Z,4.20
2022-12-03T06:26:18.427Z,4.20
2022-12-03T06:28:54.303Z,4.20
2022-12-03T06:31:28.642Z,4.20
2022-12-03T06:33:56.549Z,4.20
2022-12-03T06:36:31.241Z,4.20
2022-12-03T06:38:59.794Z,4.20
2022-12-03T06:41:33.221Z,4.20
2022-12-03T06:44:01.051Z,4.20
2022-12-03T06:46:35.241Z,4.20
2022-12-03T06:49:02.839Z,4.20
2022-12-03T06:51:36.201Z,4.30
2022-12-03T06:54:05.102Z,4.30
2022-12-03T06:56:45.163Z,4.30
2022-12-03T06:59:19.316Z,4.30
2022-12-03T07:01:46.632Z,4.30
2022-12-03T07:04:21.932Z,4.30
2022-12-03T07:06:49.494Z,4.20
2022-12-03T07:09:24.258Z,4.20
2022-12-03T07:11:51.590Z,4.20
2022-12-03T07:14:25.220Z,4.20
2022-12-03T07:16:52.504Z,4.20
2022-12-03T07:19:30.836Z,4.20
2022-12-03T07:22:00.497Z,4.20
2022-12-03T07:24:34.437Z,4.20
2022-12-03T07:27:09.242Z,4.20
2022-12-03T07:29:36.943Z,4.20
2022-12-03T07:32:11.218Z,4.20
2022-12-03T07:34:38.773Z,4.20
2022-12-03T07:37:12.213Z,4.20
2022-12-03T07:39:46.278Z,4.20
2022-12-03T07:42:13.826Z,4.20
2022-12-03T07:44:48.552Z,4.20
2022-12-03T07:47:16.653Z,4.30
2022-12-03T07:49:50.314Z,4.20
2022-12-03T07:52:17.786Z,4.30
2022-12-03T07:54:51.344Z,4.20
2022-12-03T07:57:19.116Z,4.30
2022-12-03T07:59:53.673Z,4.30
2022-12-03T08:02:21.832Z,4.30
2022-12-03T08:04:56.456Z,4.30
2022-12-03T08:07:24.938Z,4.20
2022-12-03T08:09:59.126Z,4.20
2022-12-03T08:12:47.221Z,4.20
2022-12-03T08:15:39.167Z,4.20
2022-12-03T08:18:16.975Z,4.20
2022-12-03T08:20:53.273Z,4.20
2022-12-03T08:23:25.560Z,4.20
2022-12-03T08:26:00.195Z,4.30
2022-12-03T08:28:34.611Z,4.30
2022-12-03T08:31:14.321Z,4.30
2022-12-03T08:33:49.052Z,4.30
2022-12-03T08:36:25.626Z,4.30
2022-12-03T08:39:03.242Z,4.20
2022-12-03T08:41:49.497Z,4.20
2022-12-03T08:44:48.082Z,4.20
2022-12-03T08:47:23.935Z,4.20
2022-12-03T08:50:39.977Z,4.50
2022-12-03T08:53:26.367Z,4.70
2022-12-03T08:55:55.918Z,4.70
2022-12-03T08:58:37.228Z,4.70
2022-12-03T09:01:15.433Z,4.60
2022-12-03T09:04:04.341Z,4.60
2022-12-03T09:06:31.768Z,4.50
2022-12-03T09:09:06.902Z,4.40
2022-12-03T09:11:34.597Z,4.40
2022-12-03T09:14:18.760Z,4.40
2022-12-03T09:16:56.307Z,4.40
2022-12-03T09:19:32.318Z,4.40
2022-12-03T09:21:59.670Z,4.40
2022-12-03T09:24:34.658Z,4.40
2022-12-03T09:27:01.784Z,4.50
2022-12-03T09:29:35.317Z,4.50
2022-12-03T09:32:02.585Z,4.60
2022-12-03T09:34:36.313Z,4.60
2022-12-03T09:37:03.898Z,4.60
2022-12-03T09:39:37.547Z,4.60
2022-12-03T09:42:05.201Z,4.60
2022-12-03T09:44:37.169Z,4.60
2022-12-03T09:47:12.248Z,4.60
2022-12-03T09:49:40.339Z,4.60
2022-12-03T09:52:14.398Z,4.60
2022-12-03T09:54:47.094Z,4.60
2022-12-03T09:57:22.173Z,4.70
2022-12-03T09:59:56.608Z,4.60
2022-12-03T10:02:30.548Z,4.60
2022-12-03T10:05:05.320Z,4.60
2022-12-03T10:07:32.998Z,4.60
2022-12-03T10:10:08.165Z,4.60
2022-12-03T10:12:35.904Z,4.60
2022-12-03T10:15:10.216Z,4.60
2022-12-03T10:17:37.444Z,4.60
2022-12-03T10:20:12.414Z,4.60
2022-12-03T10:22:39.668Z,4.60
2022-12-03T10:25:26.295Z,4.60
2022-12-03T10:28:02.378Z,4.70
2022-12-03T10:30:37.541Z,4.70
2022-12-03T10:33:21.264Z,4.70
2022-12-03T10:35:55.392Z,4.70
2022-12-03T10:38:24.311Z,4.80
2022-12-03T10:41:01.228Z,4.80
2022-12-03T10:43:35.888Z,4.70
2022-12-03T10:46:04.531Z,4.80
2022-12-03T10:48:39.370Z,4.90
2022-12-03T10:51:16.014Z,4.80
2022-12-03T10:53:50.269Z,4.90
2022-12-03T10:56:28.468Z,4.90
2022-12-03T10:59:03.368Z,4.90
2022-12-03T11:01:32.724Z,4.90
2022-12-03T11:04:11.410Z,4.80
2022-12-03T11:06:38.909Z,4.90
2022-12-03T11:09:41.909Z,4.90
2022-12-03T11:12:29.509Z,4.80
2022-12-03T11:15:04.634Z,4.80
2022-12-03T11:18:05.412Z,4.90
2022-12-03T11:20:33.108Z,4.90
2022-12-03T11:23:07.314Z,4.90
2022-12-03T11:25:46.669Z,4.90
2022-12-03T11:28:20.300Z,4.90
2022-12-03T11:30:51.290Z,5.00
2022-12-03T11:33:42.569Z,4.90
2022-12-03T11:36:12.195Z,4.90
2022-12-03T11:38:53.258Z,4.90
2022-12-03T11:41:27.871Z,4.80
2022-12-03T11:44:04.729Z,4.80
2022-12-03T11:46:38.023Z,4.90
2022-12-03T11:49:32.558Z,4.90
2022-12-03T11:52:02.774Z,5.00
2022-12-03T11:54:42.148Z,5.00
2022-12-03T11:57:31.154Z,5.10
2022-12-03T12:00:30.289Z,5.20
2022-12-03T12:03:00.207Z,5.30
2022-12-03T12:05:40.278Z,5.30
2022-12-03T12:08:23.858Z,5.30
2022-12-03T12:10:58.233Z,5.30
2022-12-03T12:13:45.283Z,5.40
2022-12-03T12:16:12.778Z,5.40
2022-12-03T12:19:01.170Z,5.30
2022-12-03T12:21:56.850Z,5.30
2022-12-03T12:24:55.418Z,5.30
2022-12-03T12:27:45.606Z,5.30
2022-12-03T12:30:28.274Z,5.30
2022-12-03T12:33:24.209Z,5.30
2022-12-03T12:35:58.254Z,5.30
2022-12-03T12:38:32.415Z,5.30
2022-12-03T12:41:07.305Z,5.40
2022-12-03T12:43:43.258Z,5.40
2022-12-03T12:46:46.161Z,5.40
2022-12-03T12:49:08.297Z,5.40
2022-12-03T12:51:50.216Z,5.40
2022-12-03T12:54:19.133Z,5.40
2022-12-03T12:56:57.396Z,5.40
2022-12-03T12:59:26.314Z,5.50
2022-12-03T13:02:01.733Z,5.50
2022-12-03T13:04:38.205Z,5.50
2022-12-03T13:07:05.841Z,5.50
2022-12-03T13:09:40.149Z,5.50
2022-12-03T13:12:21.409Z,5.60
2022-12-03T13:15:05.379Z,5.60
2022-12-03T13:17:40.335Z,5.50
2022-12-03T13:20:25.274Z,5.60
2022-12-03T13:22:52.980Z,5.60
2022-12-03T13:26:01.766Z,5.60
2022-12-03T13:28:32.412Z,5.60
2022-12-03T13:31:32.415Z,5.60
2022-12-03T13:34:02.427Z,5.70
2022-12-03T13:36:55.339Z,5.70
2022-12-03T13:39:42.288Z,5.70
2022-12-03T13:42:38.980Z,5.70
2022-12-03T13:45:31.357Z,5.70
2022-12-03T13:48:15.768Z,5.70
2022-12-03T13:50:53.268Z,5.80
2022-12-03T13:53:47.274Z,5.80
2022-12-03T13:56:33.064Z,5.80
2022-12-03T13:59:08.411Z,5.90
2022-12-03T14:01:36.696Z,5.90
2022-12-03T14:04:12.246Z,5.90
2022-12-03T14:06:41.302Z,5.90
2022-12-03T14:09:16.423Z,5.90
2022-12-03T14:12:07.164Z,5.90
2022-12-03T14:14:47.339Z,5.90
2022-12-03T14:17:28.347Z,5.90
2022-12-03T14:19:56.000Z,5.90
2022-12-03T14:22:34.838Z,5.90
2022-12-03T14:25:01.987Z,6.00
2022-12-03T14:27:36.372Z,6.00
2022-12-03T14:30:06.750Z,6.00
2022-12-03T14:32:40.298Z,6.00
2022-12-03T14:35:10.063Z,6.00
2022-12-03T14:37:44.757Z,6.00
2022-12-03T14:40:16.529Z,6.00
2022-12-03T14:42:53.315Z,6.00
2022-12-03T14:45:21.640Z,6.00
2022-12-03T14:47:55.287Z,6.00
2022-12-03T14:50:29.387Z,6.00
2022-12-03T14:52:58.063Z,6.00
2022-12-03T14:55:32.347Z,6.00
2022-12-03T14:57:59.909Z,6.00
2022-12-03T15:00:33.398Z,6.00
2022-12-03T15:03:02.231Z,6.00
2022-12-03T15:05:36.564Z,6.00
2022-12-03T15:08:10.597Z,6.00
2022-12-03T15:10:38.037Z,6.00
2022-12-03T15:13:12.417Z,6.00
2022-12-03T15:15:59.438Z,6.00
2022-12-03T15:18:27.068Z,6.00
2022-12-03T15:20:54.599Z,6.00
2022-12-03T15:23:28.288Z,6.00
2022-12-03T15:25:55.700Z,6.10
2022-12-03T15:28:30.407Z,6.10
2022-12-03T15:30:57.707Z,6.10
2022-12-03T15:33:31.429Z,6.00
2022-12-03T15:35:58.799Z,6.00
2022-12-03T15:38:33.358Z,6.10
2022-12-03T15:41:21.085Z,6.00
2022-12-03T15:43:56.418Z,6.10
2022-12-03T15:46:31.617Z,6.10
2022-12-03T15:49:06.367Z,6.10
2022-12-03T15:51:40.200Z,6.10
2022-12-03T15:54:07.370Z,6.10
2022-12-03T15:56:44.186Z,6.10
2022-12-03T15:59:18.445Z,6.10
2022-12-03T16:01:45.711Z,6.10
2022-12-03T16:04:19.627Z,6.10
2022-12-03T16:06:53.326Z,6.10
2022-12-03T16:09:27.861Z,6.10
2022-12-03T16:11:56.045Z,6.10
2022-12-03T16:14:36.361Z,6.10
2022-12-03T16:17:10.386Z,6.10
2022-12-03T16:19:44.236Z,6.10
2022-12-03T16:22:11.501Z,6.00
2022-12-03T16:24:45.280Z,6.00
2022-12-03T16:27:12.705Z,6.10
2022-12-03T16:29:46.366Z,6.10
2022-12-03T16:32:14.089Z,6.10
2022-12-03T16:34:48.740Z,6.10
2022-12-03T16:37:15.876Z,6.10
2022-12-03T16:39:49.361Z,6.10
2022-12-03T16:42:23.226Z,6.10
2022-12-03T16:45:09.534Z,6.10
2022-12-03T16:47:43.271Z,6.10
2022-12-03T16:50:16.462Z,6.10
2022-12-03T16:52:55.345Z,6.10
2022-12-03T16:55:29.414Z,6.00
2022-12-03T16:57:57.573Z,6.00
2022-12-03T17:00:33.429Z,6.00
2022-12-03T17:03:08.391Z,6.00
2022-12-03T17:05:36.608Z,6.00
2022-12-03T17:08:41.067Z,6.00
2022-12-03T17:11:25.374Z,5.90
2022-12-03T17:14:12.768Z,5.90
2022-12-03T17:16:48.685Z,5.80
2022-12-03T17:19:16.727Z,5.80
2022-12-03T17:21:50.750Z,5.80
2022-12-03T17:24:22.549Z,5.80
2022-12-03T17:26:58.519Z,5.70
2022-12-03T17:29:27.128Z,5.70
2022-12-03T17:32:03.403Z,5.70
2022-12-03T17:34:39.264Z,5.60
2022-12-03T17:37:08.430Z,5.60
2022-12-03T17:39:42.528Z,5.60
2022-12-03T17:42:09.948Z,5.50
2022-12-03T17:44:44.248Z,5.50
2022-12-03T17:47:18.996Z,5.50
2022-12-03T17:49:46.298Z,5.50
2022-12-03T17:52:21.396Z,5.50
2022-12-03T17:57:52.747Z,5.40
2022-12-03T18:00:21.038Z,5.40
2022-12-03T18:02:56.098Z,5.40
2022-12-03T18:05:32.202Z,5.40
2022-12-03T18:08:07.510Z,5.30
2022-12-03T18:10:34.957Z,5.30
2022-12-03T18:13:10.879Z,5.30
2022-12-03T18:16:00.521Z,5.30
2022-12-03T18:18:34.667Z,5.20
2022-12-03T18:21:05.078Z,5.20
2022-12-03T18:23:42.997Z,5.10
2022-12-03T18:26:11.588Z,5.10
2022-12-03T18:28:47.788Z,5.10
2022-12-03T18:31:25.334Z,5.10
2022-12-03T18:34:03.469Z,5.10
2022-12-03T18:36:36.282Z,5.10
2022-12-03T18:39:13.658Z,5.10
2022-12-03T18:41:41.097Z,5.10
2022-12-03T18:44:20.141Z,5.20
2022-12-03T18:46:55.178Z,5.20
2022-12-03T18:49:23.158Z,5.20
2022-12-03T18:51:59.797Z,5.20
2022-12-03T18:54:34.268Z,5.30
2022-12-03T18:57:01.749Z,5.30
2022-12-03T18:59:29.177Z,5.30
2022-12-03T19:02:03.483Z,5.30
2022-12-03T19:04:31.241Z,5.30
2022-12-03T19:07:05.320Z,5.30
2022-12-03T19:09:40.992Z,5.30
2022-12-03T19:12:16.459Z,5.30
2022-12-03T19:14:58.167Z,5.30
2022-12-03T19:17:40.248Z,5.30
2022-12-03T19:20:10.259Z,5.30
2022-12-03T19:22:44.378Z,5.30
2022-12-03T19:25:18.218Z,5.30
2022-12-03T19:27:45.539Z,5.20
2022-12-03T19:30:20.196Z,5.20
2022-12-03T19:32:51.815Z,5.20
2022-12-03T19:35:26.359Z,5.20
2022-12-03T19:37:53.576Z,5.10
2022-12-03T19:40:27.738Z,5.10
2022-12-03T19:42:55.436Z,5.10
2022-12-03T19:45:29.453Z,5.10
2022-12-03T19:47:59.969Z,5.10
2022-12-03T19:50:34.707Z,5.10
2022-12-03T19:53:02.079Z,5.10
2022-12-03T19:55:36.407Z,5.10
2022-12-03T19:58:04.061Z,5.10
2022-12-03T20:00:38.411Z,5.10
2022-12-03T20:03:12.342Z,5.10
2022-12-03T20:05:41.547Z,5.10
2022-12-03T20:08:16.289Z,5.20
2022-12-03T20:10:43.483Z,5.20
2022-12-03T20:13:17.317Z,5.20
2022-12-03T20:16:04.447Z,5.20
2022-12-03T20:18:32.089Z,5.20
2022-12-03T20:21:07.437Z,5.20
2022-12-03T20:23:35.349Z,5.20
2022-12-03T20:26:09.578Z,5.30
2022-12-03T20:28:43.244Z,5.30
2022-12-03T20:31:16.872Z,5.30
2022-12-03T20:33:54.306Z,5.40
2022-12-03T20:36:29.394Z,5.40
2022-12-03T20:38:57.780Z,5.40
2022-12-03T20:41:25.528Z,5.50
2022-12-03T20:44:00.413Z,5.50
2022-12-03T20:46:30.007Z,5.50
2022-12-03T20:49:05.481Z,5.50
2022-12-03T20:51:39.353Z,5.50
2022-12-03T20:54:06.725Z,5.50
2022-12-03T20:56:44.453Z,5.50
2022-12-03T20:59:14.043Z,5.50
2022-12-03T21:01:48.548Z,5.50
2022-12-03T21:04:18.334Z,5.50
2022-12-03T21:06:52.414Z,5.50
2022-12-03T21:09:19.676Z,5.50
2022-12-03T21:11:53.385Z,5.50
2022-12-03T21:14:40.544Z,5.50
2022-12-03T21:17:09.722Z,5.50
2022-12-03T21:19:44.294Z,5.50
2022-12-03T21:22:18.453Z,5.50
2022-12-03T21:24:46.059Z,5.50
2022-12-03T21:27:22.033Z,5.60
2022-12-03T21:29:49.429Z,5.60
2022-12-03T21:32:23.400Z,5.60
2022-12-03T21:34:50.723Z,5.60
2022-12-03T21:37:24.553Z,5.60
2022-12-03T21:39:52.321Z,5.60
2022-12-03T21:42:36.784Z,5.60
2022-12-03T21:45:08.073Z,5.60
2022-12-03T21:47:42.474Z,5.60
2022-12-03T21:50:11.903Z,5.60
2022-12-03T21:52:45.483Z,5.60
2022-12-03T21:55:19.355Z,5.60
2022-12-03T21:57:53.353Z,5.60
2022-12-03T22:00:22.333Z,5.60
2022-12-03T22:02:59.407Z,5.60
2022-12-03T22:05:33.273Z,5.60
2022-12-03T22:08:01.428Z,5.50
2022-12-03T22:10:35.373Z,5.50
2022-12-03T22:13:02.865Z,5.50
2022-12-03T22:15:47.430Z,5.50
2022-12-03T22:18:28.353Z,5.50
2022-12-03T22:20:55.749Z,5.50
2022-12-03T22:23:29.318Z,5.50
2022-12-03T22:26:03.568Z,5.60
2022-12-03T22:28:38.295Z,5.60
2022-12-03T22:31:07.431Z,5.70
2022-12-03T22:33:42.577Z,5.70
2022-12-03T22:36:19.982Z,5.70
2022-12-03T22:38:55.665Z,5.70
2022-12-03T22:41:23.341Z,5.70
2022-12-03T22:43:57.506Z,5.70
2022-12-03T22:46:25.019Z,5.80
2022-12-03T22:48:52.372Z,5.80
2022-12-03T22:51:30.042Z,5.80
2022-12-03T22:54:06.534Z,5.80
2022-12-03T22:56:34.395Z,5.80
2022-12-03T22:59:08.371Z,5.80
2022-12-03T23:01:44.302Z,5.80
2022-12-03T23:04:21.465Z,5.80
2022-12-03T23:06:48.930Z,5.80
2022-12-03T23:09:24.490Z,5.90
2022-12-03T23:11:51.718Z,5.90
2022-12-03T23:14:25.345Z,6.00
2022-12-03T23:17:00.057Z,6.00
2022-12-03T23:19:34.391Z,6.00
2022-12-03T23:22:02.332Z,6.10
2022-12-03T23:24:36.360Z,6.10
2022-12-03T23:27:03.601Z,6.10
2022-12-03T23:29:37.372Z,6.10
2022-12-03T23:32:05.040Z,6.10
2022-12-03T23:34:39.513Z,6.00
2022-12-03T23:37:06.765Z,6.00
2022-12-03T23:39:40.534Z,6.00
2022-12-03T23:42:14.227Z,6.00
2022-12-03T23:44:48.402Z,6.00
2022-12-03T23:47:16.235Z,6.00
2022-12-03T23:49:50.380Z,6.00
2022-12-03T23:52:17.538Z,6.00
2022-12-03T23:54:51.386Z,6.00
2022-12-03T23:57:18.809Z,6.00
2022-12-03T23:59:52.418Z,6.00
